createdAt,value
2023-01-12T00:00:22.867Z,82.2
2023-01-12T00:02:22.568Z,82.2
2023-01-12T00:04:22.260Z,82.2
2023-01-12T00:06:22.941Z,82.8
2023-01-12T00:08:21.460Z,82.6
2023-01-12T00:10:21.069Z,82
2023-01-12T00:12:20.762Z,81.8
2023-01-12T00:14:20.501Z,81.8
2023-01-12T00:16:23.730Z,82.8
2023-01-12T00:18:19.972Z,82.8
2023-01-12T00:20:19.558Z,81.8
2023-01-12T00:22:19.184Z,81.6
2023-01-12T00:24:19.057Z,83.8
2023-01-12T00:26:18.568Z,82.1
2023-01-12T00:28:18.711Z,82.1
2023-01-12T00:30:18.331Z,81.6
2023-01-12T00:32:19.674Z,82.1
2023-01-12T00:34:17.344Z,82.8
2023-01-12T00:36:18.463Z,82.2
2023-01-12T00:38:16.650Z,81.3
2023-01-12T00:40:17.286Z,81.9
2023-01-12T00:42:16.237Z,81.9
2023-01-12T00:44:15.976Z,81.9
2023-01-12T00:46:15.780Z,81.9
2023-01-12T00:48:15.320Z,81.3
2023-01-12T00:50:16.532Z,82.2
2023-01-12T00:52:29.423Z,81.9
2023-01-12T00:54:14.675Z,81.4
2023-01-12T00:56:14.095Z,81.4
2023-01-12T00:58:13.800Z,82.6
2023-01-12T01:00:14.732Z,81.7
2023-01-12T01:02:13.781Z,82.7
2023-01-12T01:04:12.920Z,81.6
2023-01-12T01:06:12.680Z,82.4
2023-01-12T01:08:12.225Z,82.4
2023-01-12T01:10:12.990Z,82.4
2023-01-12T01:12:11.856Z,81.6
2023-01-12T01:14:11.290Z,82.2
2023-01-12T01:16:13.695Z,82.2
2023-01-12T01:18:10.644Z,82.2
2023-01-12T01:20:11.711Z,82.2
2023-01-12T01:22:09.997Z,81.9
2023-01-12T01:24:11.724Z,81.9
2023-01-12T01:26:12.280Z,81.9
2023-01-12T01:28:09.199Z,81.9
2023-01-12T01:30:10.022Z,81.9
2023-01-12T01:32:08.951Z,82.8
2023-01-12T01:34:08.059Z,82.1
2023-01-12T01:36:08.300Z,82.1
2023-01-12T01:38:07.501Z,81.5
2023-01-12T01:40:08.615Z,81.5
2023-01-12T01:42:12.627Z,82.1
2023-01-12T01:44:36.137Z,82.9
2023-01-12T01:46:12.858Z,81.6
2023-01-12T01:48:08.522Z,81.6
2023-01-12T01:50:14.313Z,81.6
2023-01-12T01:52:11.054Z,82.1
2023-01-12T01:54:05.630Z,81.6
2023-01-12T01:56:10.600Z,81.6
2023-01-12T01:58:09.599Z,81
2023-01-12T02:00:08.007Z,81
2023-01-12T02:02:04.607Z,81.7
2023-01-12T02:04:05.025Z,82.4
2023-01-12T02:06:05.766Z,81.7
2023-01-12T02:08:08.075Z,81.1
2023-01-12T02:10:03.331Z,81.5
2023-01-12T02:12:03.821Z,81.6
2023-01-12T02:14:02.086Z,80.9
2023-01-12T02:16:13.415Z,80.9
2023-01-12T02:18:11.285Z,80.8
2023-01-12T02:20:28.916Z,81.9
2023-01-12T02:22:20.766Z,81.1
2023-01-12T02:24:27.648Z,81.8
2023-01-12T02:26:23.254Z,82.9
2023-01-12T02:28:14.757Z,81.4
2023-01-12T02:30:36.398Z,81.4
2023-01-12T02:32:09.387Z,81.6
2023-01-12T02:34:12.571Z,81.6
2023-01-12T02:36:06.482Z,81.6
2023-01-12T02:38:11.067Z,81.5
2023-01-12T02:40:05.277Z,81.5
2023-01-12T02:42:06.171Z,81.1
2023-01-12T02:43:57.533Z,80.7
2023-01-12T02:46:08.523Z,82.8
2023-01-12T02:48:04.754Z,81.1
2023-01-12T02:50:00.628Z,81.1
2023-01-12T02:52:01.065Z,81.9
2023-01-12T02:54:00.190Z,81
2023-01-12T02:55:58.572Z,81
2023-01-12T02:57:56.493Z,81
2023-01-12T02:59:56.887Z,81.3
2023-01-12T03:01:59.395Z,80.6
2023-01-12T03:03:59.740Z,80.6
2023-01-12T03:05:55.780Z,82.2
2023-01-12T03:07:58.099Z,81.3
2023-01-12T03:09:59.211Z,81.3
2023-01-12T03:12:00.328Z,81.2
2023-01-12T03:13:59.887Z,81.4
2023-01-12T03:15:55.285Z,81.5
2023-01-12T03:17:57.943Z,81.5
2023-01-12T03:19:54.103Z,81.1
2023-01-12T03:21:55.487Z,81.6
2023-01-12T03:23:57.693Z,81.6
2023-01-12T03:25:54.157Z,81.6
2023-01-12T03:27:54.634Z,81.6
2023-01-12T03:29:58.794Z,81.7
2023-01-12T03:31:50.485Z,81.4
2023-01-12T03:33:50.671Z,81.8
2023-01-12T03:35:56.542Z,81.2
2023-01-12T03:37:55.894Z,81.2
2023-01-12T03:39:57.158Z,81.2
2023-01-12T03:41:56.348Z,81
2023-01-12T03:43:51.761Z,81.9
2023-01-12T03:45:52.721Z,81.3
2023-01-12T03:47:53.887Z,81.3
2023-01-12T03:49:52.911Z,81
2023-01-12T03:51:50.172Z,81.7
2023-01-12T03:53:50.149Z,81.7
2023-01-12T03:55:49.451Z,81.7
2023-01-12T03:57:48.493Z,81.7
2023-01-12T03:59:46.257Z,82.3
2023-01-12T04:01:46.174Z,81.9
2023-01-12T04:03:45.744Z,81.9
2023-01-12T04:05:45.850Z,81.2
2023-01-12T04:07:45.114Z,81.2
2023-01-12T04:09:44.746Z,81.2
2023-01-12T04:11:44.349Z,81.3
2023-01-12T04:13:44.326Z,82
2023-01-12T04:15:43.922Z,81.5
2023-01-12T04:17:43.501Z,81.5
2023-01-12T04:19:43.249Z,81.5
2023-01-12T04:21:42.980Z,81.6
2023-01-12T04:23:42.601Z,82.3
2023-01-12T04:25:42.467Z,81.8
2023-01-12T04:27:46.050Z,81.8
2023-01-12T04:29:41.695Z,81.8
2023-01-12T04:31:41.561Z,81.7
2023-01-12T04:33:41.360Z,81.7
2023-01-12T04:35:40.869Z,81.7
2023-01-12T04:37:40.593Z,82.6
2023-01-12T04:39:40.230Z,81.8
2023-01-12T04:41:39.948Z,82.1
2023-01-12T04:43:39.589Z,82.3
2023-01-12T04:45:40.469Z,81.7
2023-01-12T04:47:38.999Z,81.7
2023-01-12T04:49:38.795Z,81.7
2023-01-12T04:51:38.524Z,81.6
2023-01-12T04:53:38.179Z,81.6
2023-01-12T04:55:40.430Z,82.2
2023-01-12T04:57:37.584Z,81.7
2023-01-12T04:59:37.138Z,81.7
2023-01-12T05:01:37.151Z,82.1
2023-01-12T05:03:36.719Z,81.9
2023-01-12T05:05:36.330Z,81.9
2023-01-12T05:07:36.017Z,82.8
2023-01-12T05:09:35.684Z,82.8
2023-01-12T05:11:35.439Z,82.1
2023-01-12T05:13:35.106Z,82.1
2023-01-12T05:15:35.024Z,82.1
2023-01-12T05:17:34.512Z,82.1
2023-01-12T05:19:34.243Z,82.8
2023-01-12T05:21:33.887Z,82.8
2023-01-12T05:23:33.646Z,82
2023-01-12T05:25:33.262Z,82.1
2023-01-12T05:27:33.111Z,82.1
2023-01-12T05:29:32.682Z,82.7
2023-01-12T05:31:33.887Z,82.2
2023-01-12T05:33:32.389Z,82.9
2023-01-12T05:35:31.878Z,82.4
2023-01-12T05:37:31.569Z,82.4
2023-01-12T05:39:31.461Z,83.6
2023-01-12T05:41:31.029Z,82.4
2023-01-12T05:43:30.872Z,81.8
2023-01-12T05:45:30.399Z,82.7
2023-01-12T05:47:30.107Z,82.7
2023-01-12T05:49:29.862Z,82
2023-01-12T05:51:30.016Z,82.9
2023-01-12T05:53:29.570Z,82.2
2023-01-12T05:55:28.947Z,82.2
2023-01-12T05:57:29.390Z,82.2
2023-01-12T05:59:28.365Z,82.1
2023-01-12T06:01:28.745Z,82
2023-01-12T06:03:28.296Z,82
2023-01-12T06:05:27.366Z,82
2023-01-12T06:07:27.069Z,82.8
2023-01-12T06:09:27.284Z,82.8
2023-01-12T06:11:26.614Z,81.8
2023-01-12T06:13:26.245Z,81.8
2023-01-12T06:15:25.904Z,82.4
2023-01-12T06:17:25.676Z,81.7
2023-01-12T06:19:25.228Z,82.2
2023-01-12T06:21:25.118Z,82.6
2023-01-12T06:23:35.459Z,81.6
2023-01-12T06:25:24.334Z,81.6
2023-01-12T06:27:24.546Z,81.6
2023-01-12T06:29:24.095Z,81.6
2023-01-12T06:31:23.526Z,82.5
2023-01-12T06:33:24.072Z,82.3
2023-01-12T06:35:22.808Z,81.6
2023-01-12T06:37:22.520Z,81.6
2023-01-12T06:39:22.277Z,82.2
2023-01-12T06:41:21.979Z,82
2023-01-12T06:43:21.607Z,82
2023-01-12T06:45:21.410Z,82
2023-01-12T06:47:21.096Z,82
2023-01-12T06:49:20.755Z,82
2023-01-12T06:51:20.734Z,81.7
2023-01-12T06:53:20.319Z,81.7
2023-01-12T06:55:19.808Z,81.7
2023-01-12T06:57:19.573Z,81.7
2023-01-12T06:59:19.356Z,81.4
2023-01-12T07:01:19.343Z,81.9
2023-01-12T07:03:19.559Z,82.1
2023-01-12T07:05:18.480Z,82.1
2023-01-12T07:07:18.047Z,81.6
2023-01-12T07:09:17.855Z,81.6
2023-01-12T07:11:17.533Z,82
2023-01-12T07:13:17.197Z,82
2023-01-12T07:15:17.271Z,82
2023-01-12T07:17:16.667Z,82
2023-01-12T07:19:16.348Z,82
2023-01-12T07:21:16.284Z,81.7
2023-01-12T07:23:15.748Z,81.7
2023-01-12T07:25:15.586Z,81.7
2023-01-12T07:27:15.413Z,82.4
2023-01-12T07:29:14.901Z,81.8
2023-01-12T07:31:14.696Z,81.2
2023-01-12T07:33:15.774Z,81.2
2023-01-12T07:35:14.493Z,81.2
2023-01-12T07:37:13.776Z,81.2
2023-01-12T07:39:13.447Z,81.2
2023-01-12T07:41:13.413Z,81.7
2023-01-12T07:43:12.856Z,80.7
2023-01-12T07:45:12.627Z,80.7
2023-01-12T07:47:12.258Z,81.2
2023-01-12T07:49:12.003Z,81.2
2023-01-12T07:51:12.031Z,80.8
2023-01-12T07:53:11.550Z,80.6
2023-01-12T07:55:11.138Z,80.6
2023-01-12T07:57:11.223Z,80.6
2023-01-12T07:59:10.793Z,80.6
2023-01-12T08:01:10.401Z,80.9
2023-01-12T08:03:12.140Z,81.1
2023-01-12T08:05:09.899Z,81.1
2023-01-12T08:07:09.989Z,80.6
2023-01-12T08:09:09.211Z,80.6
2023-01-12T08:11:11.152Z,80.1
2023-01-12T08:13:08.775Z,81.2
2023-01-12T08:15:10.938Z,80.6
2023-01-12T08:17:13.281Z,80.6
2023-01-12T08:19:11.162Z,79.4
2023-01-12T08:21:12.294Z,80.2
2023-01-12T08:23:13.093Z,80.2
2023-01-12T08:25:13.292Z,79.4
2023-01-12T08:27:08.912Z,79.4
2023-01-12T08:29:12.930Z,78.9
2023-01-12T08:31:07.108Z,79
2023-01-12T08:33:06.009Z,79
2023-01-12T08:35:06.940Z,79
2023-01-12T08:37:09.387Z,78.3
2023-01-12T08:39:05.151Z,78.8
2023-01-12T08:41:05.445Z,79
2023-01-12T08:43:04.705Z,79
2023-01-12T08:45:05.887Z,79
2023-01-12T08:47:05.770Z,79
2023-01-12T08:49:08.428Z,79
2023-01-12T08:51:04.823Z,79.2
2023-01-12T08:53:03.452Z,79.2
2023-01-12T08:55:03.717Z,79.2
2023-01-12T08:57:02.923Z,79.6
2023-01-12T08:59:03.933Z,79.7
2023-01-12T09:01:07.657Z,79.3
2023-01-12T09:03:02.090Z,79.3
2023-01-12T09:05:01.873Z,79.3
2023-01-12T09:07:01.576Z,79.3
2023-01-12T09:09:04.107Z,79.1
2023-01-12T09:11:02.237Z,79.5
2023-01-12T09:13:01.271Z,79
2023-01-12T09:15:00.442Z,79
2023-01-12T09:17:00.253Z,79
2023-01-12T09:19:00.661Z,79
2023-01-12T09:21:01.034Z,79
2023-01-12T09:23:02.348Z,79
2023-01-12T09:24:59.170Z,79.6
2023-01-12T09:26:58.843Z,79.6
2023-01-12T09:28:59.189Z,79
2023-01-12T09:31:02.744Z,78.9
2023-01-12T09:32:58.144Z,78.9
2023-01-12T09:34:57.990Z,78.9
2023-01-12T09:36:58.040Z,78.5
2023-01-12T09:38:57.648Z,78.5
2023-01-12T09:41:02.355Z,78.6
2023-01-12T09:42:56.828Z,79.1
2023-01-12T09:44:56.542Z,78.4
2023-01-12T09:46:57.885Z,78.4
2023-01-12T09:48:56.295Z,78.4
2023-01-12T09:51:01.076Z,78.5
2023-01-12T09:53:00.356Z,78.5
2023-01-12T09:54:55.748Z,78.5
2023-01-12T09:57:04.551Z,79.1
2023-01-12T09:59:13.225Z,79.1
2023-01-12T10:00:57.446Z,78.9
2023-01-12T10:03:06.402Z,78.9
2023-01-12T10:04:55.841Z,78.9
2023-01-12T10:06:54.489Z,78.9
2023-01-12T10:08:56.429Z,78.9
2023-01-12T10:11:14.079Z,78.7
2023-01-12T10:13:00.037Z,78.7
2023-01-12T10:15:07.626Z,78.7
2023-01-12T10:17:04.798Z,78.7
2023-01-12T10:18:58.309Z,79.3
2023-01-12T10:20:52.424Z,79.1
2023-01-12T10:22:54.814Z,79.1
2023-01-12T10:24:51.421Z,79.1
2023-01-12T10:26:59.310Z,79.1
2023-01-12T10:28:54.289Z,80.1
2023-01-12T10:30:53.192Z,79.5
2023-01-12T10:32:50.679Z,79.5
2023-01-12T10:34:51.090Z,79.5
2023-01-12T10:36:55.613Z,80
2023-01-12T10:38:54.698Z,80
2023-01-12T10:41:05.169Z,80.2
2023-01-12T10:42:55.715Z,80.2
2023-01-12T10:45:03.757Z,80.2
2023-01-12T10:47:08.638Z,80.2
2023-01-12T10:48:49.788Z,80.7
2023-01-12T10:50:57.046Z,80.9
2023-01-12T10:52:49.148Z,80.9
2023-01-12T10:54:48.715Z,80.9
2023-01-12T10:56:56.641Z,80.9
2023-01-12T10:58:52.635Z,80.9
2023-01-12T11:00:47.623Z,81.1
2023-01-12T11:02:46.299Z,81.1
2023-01-12T11:04:48.397Z,81.1
2023-01-12T11:06:55.950Z,81.1
2023-01-12T11:08:45.225Z,81.3
2023-01-12T11:10:45.174Z,81.3
2023-01-12T11:12:54.904Z,80.8
2023-01-12T11:14:58.522Z,80.8
2023-01-12T11:16:48.479Z,80.8
2023-01-12T11:18:49.778Z,80.8
2023-01-12T11:20:48.023Z,81
2023-01-12T11:22:46.245Z,81
2023-01-12T11:24:46.907Z,81
2023-01-12T11:26:48.321Z,81.3
2023-01-12T11:28:47.258Z,81.3
2023-01-12T11:30:49.186Z,81.3
2023-01-12T11:32:45.467Z,81.3
2023-01-12T11:34:54.887Z,81.3
2023-01-12T11:36:45.706Z,81.3
2023-01-12T11:38:44.188Z,81.8
2023-01-12T11:40:43.079Z,81.8
2023-01-12T11:42:41.102Z,82.2
2023-01-12T11:44:46.910Z,82.2
2023-01-12T11:46:43.705Z,82.2
2023-01-12T11:48:49.819Z,82.2
2023-01-12T11:50:40.151Z,82.2
2023-01-12T11:52:39.721Z,81.9
2023-01-12T11:54:40.214Z,81.9
2023-01-12T11:57:06.062Z,81.9
2023-01-12T11:58:51.602Z,81.9
2023-01-12T12:00:49.000Z,82.1
2023-01-12T12:02:41.218Z,82.1
2023-01-12T12:04:51.142Z,82.1
2023-01-12T12:06:51.089Z,82.1
2023-01-12T12:08:48.739Z,82.1
2023-01-12T12:10:47.065Z,82.1
2023-01-12T12:12:47.267Z,82.3
2023-01-12T12:14:50.909Z,82.5
2023-01-12T12:16:47.165Z,82.5
2023-01-12T12:18:47.615Z,82.5
2023-01-12T12:20:42.804Z,82.5
2023-01-12T12:22:51.870Z,82.4
2023-01-12T12:24:55.951Z,82.4
2023-01-12T12:26:37.310Z,82.4
2023-01-12T12:28:52.451Z,83
2023-01-12T12:31:04.378Z,82.7
2023-01-12T12:32:43.798Z,82.7
2023-01-12T12:34:53.500Z,82.7
2023-01-12T12:36:40.011Z,82.7
2023-01-12T12:38:48.971Z,82.7
2023-01-12T12:40:40.387Z,82.7
2023-01-12T12:42:49.331Z,83.7
2023-01-12T12:44:43.638Z,83.7
2023-01-12T12:46:41.158Z,83.7
2023-01-12T12:48:40.239Z,83.7
2023-01-12T12:50:35.395Z,83.7
2023-01-12T12:52:31.424Z,83.8
2023-01-12T12:54:31.106Z,84.3
2023-01-12T12:56:33.200Z,84.3
2023-01-12T12:58:39.414Z,84.3
2023-01-12T13:00:33.697Z,84.3
2023-01-12T13:02:36.938Z,84.3
2023-01-12T13:04:58.918Z,84.3
2023-01-12T13:06:30.085Z,84.3
2023-01-12T13:08:35.140Z,84.3
2023-01-12T13:10:30.799Z,84.9
2023-01-12T13:12:32.400Z,84.7
2023-01-12T13:14:29.212Z,84.7
2023-01-12T13:16:47.208Z,84.7
2023-01-12T13:18:42.355Z,84.7
2023-01-12T13:20:37.610Z,84.7
2023-01-12T13:22:29.868Z,85.1
2023-01-12T13:24:28.398Z,85.1
2023-01-12T13:26:38.851Z,85.1
2023-01-12T13:28:24.412Z,85.5
2023-01-12T13:30:37.232Z,85.5
2023-01-12T13:32:41.538Z,85.2
2023-01-12T13:34:40.419Z,85.2
2023-01-12T13:36:30.176Z,85.2
2023-01-12T13:38:44.002Z,85.2
2023-01-12T13:40:27.161Z,85.2
2023-01-12T13:42:22.494Z,85.6
2023-01-12T13:44:27.732Z,85.6
2023-01-12T13:46:25.581Z,85.6
2023-01-12T13:48:21.668Z,86
2023-01-12T13:50:24.622Z,86
2023-01-12T13:52:28.662Z,86.1
2023-01-12T13:54:20.122Z,86.1
2023-01-12T13:56:20.179Z,86.1
2023-01-12T13:58:19.508Z,86.6
2023-01-12T14:00:19.878Z,86.6
2023-01-12T14:02:18.974Z,86.5
2023-01-12T14:04:33.415Z,86.5
2023-01-12T14:06:29.806Z,86.5
2023-01-12T14:08:50.659Z,86.5
2023-01-12T14:10:27.062Z,86.5
2023-01-12T14:12:36.407Z,86.8
2023-01-12T14:14:38.643Z,86.8
2023-01-12T14:16:18.530Z,87.1
2023-01-12T14:18:18.822Z,87.1
2023-01-12T14:20:17.889Z,87.1
2023-01-12T14:22:19.084Z,87
2023-01-12T14:24:19.804Z,87
2023-01-12T14:26:18.826Z,87
2023-01-12T14:28:17.346Z,87
2023-01-12T14:30:14.252Z,87
2023-01-12T14:32:14.536Z,87.2
2023-01-12T14:34:25.764Z,87.2
2023-01-12T14:36:23.819Z,87.2
2023-01-12T14:38:14.541Z,87.2
2023-01-12T14:40:20.785Z,87.6
2023-01-12T14:42:16.674Z,87.6
2023-01-12T14:44:18.044Z,87.6
2023-01-12T14:46:19.098Z,87.6
2023-01-12T14:48:20.380Z,87.6
2023-01-12T14:50:21.427Z,87.6
2023-01-12T14:52:24.054Z,87.1
2023-01-12T14:54:19.004Z,87.1
2023-01-12T14:56:16.115Z,87.1
2023-01-12T14:58:20.116Z,87.1
2023-01-12T15:00:21.138Z,87.1
2023-01-12T15:02:28.918Z,87.3
2023-01-12T15:04:17.269Z,87.3
2023-01-12T15:06:14.325Z,87.3
2023-01-12T15:08:22.352Z,87.3
2023-01-12T15:10:25.969Z,87.3
2023-01-12T15:12:39.651Z,87.4
2023-01-12T15:14:21.532Z,87.4
2023-01-12T15:16:08.129Z,87.4
2023-01-12T15:18:07.876Z,87.4
2023-01-12T15:20:11.427Z,87.4
2023-01-12T15:22:09.274Z,87.2
2023-01-12T15:24:19.789Z,87.2
2023-01-12T15:26:04.881Z,87.2
2023-01-12T15:28:06.760Z,87.2
2023-01-12T15:30:05.354Z,87.2
2023-01-12T15:32:11.445Z,87.7
2023-01-12T15:34:05.112Z,87.7
2023-01-12T15:36:03.772Z,87.7
2023-01-12T15:38:02.961Z,89
2023-01-12T15:40:03.323Z,87.4
2023-01-12T15:42:02.435Z,87.3
2023-01-12T15:44:02.058Z,87.3
2023-01-12T15:46:01.873Z,87.3
2023-01-12T15:48:01.973Z,87.9
2023-01-12T15:50:01.229Z,87.9
2023-01-12T15:52:01.151Z,87.6
2023-01-12T15:54:01.175Z,87.6
2023-01-12T15:56:00.299Z,87.6
2023-01-12T15:57:59.905Z,87.6
2023-01-12T16:00:00.044Z,87.6
2023-01-12T16:01:59.381Z,87.8
2023-01-12T16:04:35.600Z,87.8
2023-01-12T16:05:58.642Z,87.8
2023-01-12T16:07:58.384Z,87.8
2023-01-12T16:09:58.197Z,87.8
2023-01-12T16:11:57.803Z,88
2023-01-12T16:13:57.465Z,88
2023-01-12T16:15:57.985Z,88
2023-01-12T16:17:56.855Z,88
2023-01-12T16:19:57.067Z,88.5
2023-01-12T16:21:56.198Z,88.3
2023-01-12T16:23:55.931Z,87.9
2023-01-12T16:25:57.859Z,87.9
2023-01-12T16:27:56.821Z,87.9
2023-01-12T16:29:56.505Z,89
2023-01-12T16:31:55.732Z,88.2
2023-01-12T16:33:54.439Z,88.2
2023-01-12T16:35:55.095Z,88.7
2023-01-12T16:37:55.441Z,88.1
2023-01-12T16:39:53.917Z,88.1
2023-01-12T16:41:55.037Z,88.2
2023-01-12T16:43:53.607Z,89
2023-01-12T16:45:54.601Z,88.4
2023-01-12T16:47:56.560Z,88.4
2023-01-12T16:49:52.880Z,88.4
2023-01-12T16:51:54.779Z,88.5
2023-01-12T16:53:53.381Z,88.5
2023-01-12T16:55:51.237Z,88.5
2023-01-12T16:57:50.440Z,88.5
2023-01-12T16:59:52.876Z,88.5
2023-01-12T17:01:49.852Z,88.6
2023-01-12T17:03:50.344Z,88.6
2023-01-12T17:05:49.027Z,88.6
2023-01-12T17:07:48.813Z,88.6
2023-01-12T17:09:48.385Z,88.6
2023-01-12T17:11:49.636Z,88.7
2023-01-12T17:13:51.355Z,88.7
2023-01-12T17:15:47.459Z,88.7
2023-01-12T17:17:48.328Z,88.7
2023-01-12T17:19:46.645Z,88.7
2023-01-12T17:21:47.176Z,88.7
2023-01-12T17:23:47.078Z,88.7
2023-01-12T17:25:45.788Z,88.7
2023-01-12T17:27:45.470Z,88.7
2023-01-12T17:29:47.203Z,88.7
2023-01-12T17:31:44.820Z,88.6
2023-01-12T17:33:44.617Z,88.6
2023-01-12T17:35:44.417Z,88.6
2023-01-12T17:37:43.948Z,88.6
2023-01-12T17:39:43.588Z,88.6
2023-01-12T17:41:43.305Z,88.5
2023-01-12T17:43:42.940Z,88.5
2023-01-12T17:45:43.078Z,88.5
2023-01-12T17:47:42.675Z,88.5
2023-01-12T17:49:42.333Z,88.5
2023-01-12T17:51:42.071Z,88.6
2023-01-12T17:53:41.763Z,88.6
2023-01-12T17:55:48.239Z,89.2
2023-01-12T17:57:43.375Z,88.9
2023-01-12T17:59:40.829Z,88.9
2023-01-12T18:01:42.405Z,88.5
2023-01-12T18:03:40.113Z,88.5
2023-01-12T18:05:42.454Z,88.5
2023-01-12T18:07:41.317Z,88.5
2023-01-12T18:09:39.344Z,88.5
2023-01-12T18:11:39.430Z,88.7
2023-01-12T18:13:40.842Z,88.7
2023-01-12T18:15:39.728Z,88.7
2023-01-12T18:17:37.757Z,88.7
2023-01-12T18:19:37.542Z,88.7
2023-01-12T18:21:37.269Z,88.7
2023-01-12T18:23:37.462Z,88.7
2023-01-12T18:25:37.064Z,88.7
2023-01-12T18:27:36.343Z,88.7
2023-01-12T18:29:36.762Z,88.7
2023-01-12T18:31:35.693Z,88.9
2023-01-12T18:33:36.094Z,89.3
2023-01-12T18:35:35.869Z,89.3
2023-01-12T18:37:34.770Z,89.3
2023-01-12T18:39:34.506Z,89.3
2023-01-12T18:41:35.824Z,88.9
2023-01-12T18:43:44.657Z,88.9
2023-01-12T18:45:33.766Z,88.9
2023-01-12T18:47:33.318Z,88.9
2023-01-12T18:49:35.147Z,88.9
2023-01-12T18:51:32.667Z,88.8
2023-01-12T18:53:32.509Z,90.4
2023-01-12T18:55:32.161Z,89.3
2023-01-12T18:57:32.786Z,89.3
2023-01-12T18:59:31.618Z,89.3
2023-01-12T19:01:31.492Z,88.8
2023-01-12T19:03:31.155Z,88.8
2023-01-12T19:05:30.809Z,88.8
2023-01-12T19:07:30.803Z,88.8
2023-01-12T19:09:30.389Z,88.8
2023-01-12T19:11:30.031Z,89
2023-01-12T19:13:29.591Z,89.7
2023-01-12T19:15:29.438Z,88.7
2023-01-12T19:17:29.472Z,88.7
2023-01-12T19:19:29.745Z,88.7
2023-01-12T19:21:28.496Z,89.3
2023-01-12T19:23:28.172Z,89
2023-01-12T19:25:28.343Z,89
2023-01-12T19:27:27.632Z,89
2023-01-12T19:29:27.376Z,89
2023-01-12T19:31:27.356Z,89.3
2023-01-12T19:33:27.107Z,89.3
2023-01-12T19:35:26.696Z,89.3
2023-01-12T19:37:26.199Z,89.1
2023-01-12T19:39:26.056Z,89.1
2023-01-12T19:41:25.782Z,89.2
2023-01-12T19:43:25.410Z,89.6
2023-01-12T19:45:25.201Z,89.6
2023-01-12T19:47:24.974Z,89.6
2023-01-12T19:49:24.667Z,89.6
2023-01-12T19:51:24.409Z,89.9
2023-01-12T19:53:25.046Z,89
2023-01-12T19:55:23.888Z,89
2023-01-12T19:57:23.528Z,89
2023-01-12T19:59:23.317Z,89.6
2023-01-12T20:01:23.487Z,89.8
2023-01-12T20:03:23.649Z,89.8
2023-01-12T20:05:22.409Z,89.8
2023-01-12T20:07:22.170Z,89.8
2023-01-12T20:09:21.795Z,89.8
2023-01-12T20:11:21.723Z,89.2
2023-01-12T20:13:21.646Z,89.2
2023-01-12T20:15:21.114Z,89.2
2023-01-12T20:17:20.926Z,89.2
2023-01-12T20:19:20.726Z,89.2
2023-01-12T20:21:20.142Z,89.1
2023-01-12T20:23:19.955Z,89.1
2023-01-12T20:25:20.248Z,89.1
2023-01-12T20:27:19.443Z,89.1
2023-01-12T20:29:19.088Z,89.1
2023-01-12T20:31:19.315Z,89.3
2023-01-12T20:33:18.574Z,89.3
2023-01-12T20:35:21.224Z,89.3
2023-01-12T20:37:18.053Z,89.3
2023-01-12T20:39:17.733Z,89.3
2023-01-12T20:41:18.757Z,89.3
2023-01-12T20:43:17.366Z,89.3
2023-01-12T20:45:16.913Z,89.3
2023-01-12T20:47:17.393Z,89.3
2023-01-12T20:49:16.577Z,89.3
2023-01-12T20:51:16.368Z,89.1
2023-01-12T20:53:16.351Z,89.1
2023-01-12T20:55:15.688Z,89.1
2023-01-12T20:57:15.703Z,89.1
2023-01-12T20:59:15.380Z,89.1
2023-01-12T21:01:15.172Z,88.9
2023-01-12T21:03:14.678Z,88.9
2023-01-12T21:05:14.326Z,88.9
2023-01-12T21:07:14.384Z,88.9
2023-01-12T21:09:13.946Z,88.9
2023-01-12T21:11:16.148Z,88.8
2023-01-12T21:13:13.229Z,88.8
2023-01-12T21:15:13.052Z,90.2
2023-01-12T21:17:12.760Z,89.3
2023-01-12T21:19:12.756Z,88.5
2023-01-12T21:21:12.299Z,89.6
2023-01-12T21:23:12.204Z,88.7
2023-01-12T21:25:11.705Z,89.4
2023-01-12T21:27:11.465Z,88.4
2023-01-12T21:29:11.292Z,88.4
2023-01-12T21:31:13.492Z,88.5
2023-01-12T21:33:12.343Z,88.5
2023-01-12T21:35:10.398Z,88.5
2023-01-12T21:37:10.259Z,88.5
2023-01-12T21:39:09.866Z,88.5
2023-01-12T21:41:10.923Z,88.7
2023-01-12T21:43:09.474Z,89.1
2023-01-12T21:45:09.496Z,89.1
2023-01-12T21:47:08.959Z,88.3
2023-01-12T21:49:08.713Z,88.3
2023-01-12T21:51:12.074Z,88.7
2023-01-12T21:53:12.099Z,88.7
2023-01-12T21:55:08.328Z,88.9
2023-01-12T21:57:07.697Z,88.9
2023-01-12T21:59:07.401Z,88.9
2023-01-12T22:01:08.939Z,88.7
2023-01-12T22:03:06.871Z,88.7
2023-01-12T22:05:07.368Z,88.7
2023-01-12T22:07:06.416Z,88.7
2023-01-12T22:09:06.331Z,89.4
2023-01-12T22:11:07.695Z,89.3
2023-01-12T22:13:05.799Z,89.5
2023-01-12T22:15:06.538Z,88.7
2023-01-12T22:17:05.222Z,88.7
2023-01-12T22:19:04.968Z,88.7
2023-01-12T22:21:06.852Z,89.1
2023-01-12T22:23:04.455Z,89.2
2023-01-12T22:25:05.269Z,88.3
2023-01-12T22:27:03.984Z,88.3
2023-01-12T22:29:03.660Z,89
2023-01-12T22:31:07.446Z,88.4
2023-01-12T22:33:03.211Z,88.4
2023-01-12T22:35:03.111Z,89
2023-01-12T22:37:02.678Z,88.5
2023-01-12T22:39:02.663Z,88.5
2023-01-12T22:41:04.264Z,89.1
2023-01-12T22:43:02.089Z,89.1
2023-01-12T22:45:01.622Z,89.1
2023-01-12T22:47:01.444Z,89.1
2023-01-12T22:49:01.231Z,89.1
2023-01-12T22:51:00.912Z,89
2023-01-12T22:53:00.648Z,88.5
2023-01-12T22:55:00.935Z,88.5
2023-01-12T22:57:00.187Z,88.5
2023-01-12T22:58:59.931Z,88.5
2023-01-12T23:01:03.882Z,89.1
2023-01-12T23:02:59.623Z,89.1
2023-01-12T23:04:59.773Z,88.5
2023-01-12T23:06:59.093Z,89
2023-01-12T23:08:58.845Z,89
2023-01-12T23:11:03.152Z,88.6
2023-01-12T23:12:58.308Z,88.6
2023-01-12T23:14:58.042Z,88.6
2023-01-12T23:16:57.731Z,88.6
2023-01-12T23:18:59.111Z,88.6
2023-01-12T23:21:01.917Z,88.5
2023-01-12T23:22:57.110Z,89.6
2023-01-12T23:24:56.842Z,88.6
2023-01-12T23:26:56.966Z,89.2
2023-01-12T23:28:58.146Z,89.2
2023-01-12T23:31:03.001Z,89.2
2023-01-12T23:32:56.972Z,90.6
2023-01-12T23:34:55.783Z,89.2
2023-01-12T23:36:55.427Z,88.4
2023-01-12T23:38:56.568Z,88.9
2023-01-12T23:40:54.897Z,88.4
2023-01-12T23:42:54.900Z,88.8
2023-01-12T23:44:54.513Z,88.8
2023-01-12T23:46:54.305Z,88.8
2023-01-12T23:48:55.437Z,88.8
2023-01-12T23:50:57.099Z,88.6
2023-01-12T23:52:53.540Z,88.6
2023-01-12T23:54:53.640Z,88.6
2023-01-12T23:56:53.157Z,88.6
2023-01-12T23:58:52.969Z,88.6
